createdAt,value
2022-10-09T00:00:09.493Z,97467.50
2022-10-09T00:03:07.349Z,97471.44
2022-10-09T00:06:06.272Z,97468.94
2022-10-09T00:09:04.306Z,97476.50
2022-10-09T00:12:01.145Z,97466.88
2022-10-09T00:14:57.991Z,97469.75
2022-10-09T00:17:54.823Z,97478.13
2022-10-09T00:20:51.659Z,97464.38
2022-10-09T00:23:50.042Z,97468.00
2022-10-09T00:26:48.091Z,97473.81
2022-10-09T00:29:44.918Z,97466.47
2022-10-09T00:32:41.765Z,97473.78
2022-10-09T00:35:39.635Z,97476.63
2022-10-09T00:38:36.759Z,97490.50
2022-10-09T00:41:34.547Z,97477.28
2022-10-09T00:44:54.901Z,97482.69
2022-10-09T00:47:57.641Z,97482.16
2022-10-09T00:50:59.202Z,97483.16
2022-10-09T00:53:56.947Z,97481.56
2022-10-09T00:56:54.699Z,97474.97
2022-10-09T00:59:51.895Z,97471.78
2022-10-09T01:02:48.958Z,97479.41
2022-10-09T01:06:10.902Z,97478.41
2022-10-09T01:10:00.727Z,97471.59
2022-10-09T01:13:31.029Z,97474.91
2022-10-09T01:16:52.489Z,97468.81
2022-10-09T01:20:31.631Z,97465.88
2022-10-09T01:24:06.534Z,97470.41
2022-10-09T01:27:24.410Z,97468.81
2022-10-09T01:30:21.361Z,97463.19
2022-10-09T01:33:18.770Z,97469.94
2022-10-09T01:36:17.378Z,97462.97
2022-10-09T01:39:22.359Z,97462.28
2022-10-09T01:42:23.094Z,97460.25
2022-10-09T01:45:20.040Z,97458.63
2022-10-09T01:48:25.243Z,97462.41
2022-10-09T01:51:29.420Z,97458.22
2022-10-09T01:55:26.536Z,97456.44
2022-10-09T01:59:02.166Z,97462.00
2022-10-09T02:02:00.359Z,97460.38
2022-10-09T02:04:58.815Z,97461.97
2022-10-09T02:07:56.811Z,97460.16
2022-10-09T02:10:58.936Z,97466.34
2022-10-09T02:13:56.412Z,97461.00
2022-10-09T02:17:04.909Z,97457.63
2022-10-09T02:20:31.315Z,97460.94
2022-10-09T02:23:29.048Z,97452.94
2022-10-09T02:26:26.950Z,97459.31
2022-10-09T02:29:24.178Z,97458.84
2022-10-09T02:32:22.805Z,97462.72
2022-10-09T02:35:20.148Z,97467.41
2022-10-09T02:38:16.974Z,97468.78
2022-10-09T02:41:13.816Z,97472.31
2022-10-09T02:44:10.668Z,97468.78
2022-10-09T02:47:07.508Z,97468.00
2022-10-09T02:50:04.874Z,97469.81
2022-10-09T02:53:01.718Z,97467.78
2022-10-09T02:55:58.657Z,97461.13
2022-10-09T02:58:55.858Z,97461.47
2022-10-09T03:01:52.852Z,97456.88
2022-10-09T03:04:49.761Z,97457.00
2022-10-09T03:07:51.352Z,97455.13
2022-10-09T03:10:48.196Z,97455.84
2022-10-09T03:13:45.976Z,97459.31
2022-10-09T03:16:42.832Z,97462.84
2022-10-09T03:19:39.658Z,97465.69
2022-10-09T03:22:36.466Z,97465.13
2022-10-09T03:25:33.729Z,97468.50
2022-10-09T03:28:31.761Z,97469.91
2022-10-09T03:34:45.568Z,97460.31
2022-10-09T03:37:42.413Z,97460.94
2022-10-09T03:40:39.409Z,97464.22
2022-10-09T03:43:36.893Z,97472.19
2022-10-09T03:46:33.814Z,97468.13
2022-10-09T03:49:30.841Z,97472.56
2022-10-09T03:52:27.673Z,97473.56
2022-10-09T03:55:24.556Z,97472.75
2022-10-09T03:58:21.563Z,97476.59
2022-10-09T04:01:18.517Z,97485.19
2022-10-09T04:04:15.500Z,97474.88
2022-10-09T04:07:12.309Z,97478.66
2022-10-09T04:10:10.006Z,97479.34
2022-10-09T04:13:07.142Z,97476.13
2022-10-09T04:16:04.103Z,97474.16
2022-10-09T04:19:01.066Z,97478.84
2022-10-09T04:21:57.869Z,97480.25
2022-10-09T04:24:54.868Z,97480.34
2022-10-09T04:27:51.763Z,97466.69
2022-10-09T04:30:48.812Z,97473.34
2022-10-09T04:33:45.719Z,97471.31
2022-10-09T04:36:43.731Z,97466.94
2022-10-09T04:39:40.584Z,97471.31
2022-10-09T04:42:37.560Z,97474.75
2022-10-09T04:45:38.837Z,97474.34
2022-10-09T04:48:45.637Z,97467.97
2022-10-09T04:51:44.711Z,97476.31
2022-10-09T04:54:41.584Z,97463.88
2022-10-09T04:57:38.431Z,97465.25
2022-10-09T05:00:35.565Z,97468.59
2022-10-09T05:03:32.407Z,97468.56
2022-10-09T05:06:29.281Z,97472.94
2022-10-09T05:09:26.147Z,97461.88
2022-10-09T05:12:23.103Z,97466.28
2022-10-09T05:15:20.044Z,97459.47
2022-10-09T05:18:16.873Z,97470.41
2022-10-09T05:21:14.409Z,97477.66
2022-10-09T05:24:11.231Z,97478.59
2022-10-09T05:27:08.118Z,97474.72
2022-10-09T05:30:08.175Z,97483.53
2022-10-09T05:33:05.022Z,97486.19
2022-10-09T05:36:05.619Z,97483.53
2022-10-09T05:39:02.534Z,97483.63
2022-10-09T05:41:59.356Z,97486.63
2022-10-09T05:44:56.184Z,97480.78
2022-10-09T05:47:53.048Z,97484.25
2022-10-09T05:50:49.898Z,97478.03
2022-10-09T05:53:47.829Z,97476.97
2022-10-09T05:56:45.179Z,97475.78
2022-10-09T05:59:42.043Z,97482.97
2022-10-09T06:02:38.931Z,97466.94
2022-10-09T06:05:35.801Z,97482.41
2022-10-09T06:08:35.375Z,97481.34
2022-10-09T06:11:35.832Z,97477.19
2022-10-09T06:14:32.690Z,97475.91
2022-10-09T06:17:29.525Z,97488.13
2022-10-09T06:20:26.384Z,97473.50
2022-10-09T06:23:23.291Z,97477.84
2022-10-09T06:26:21.880Z,97486.75
2022-10-09T06:29:18.714Z,97481.13
2022-10-09T06:32:15.625Z,97483.84
2022-10-09T06:35:12.488Z,97491.00
2022-10-09T06:38:10.324Z,97498.13
2022-10-09T06:41:14.510Z,97492.13
2022-10-09T06:44:16.509Z,97492.91
2022-10-09T06:47:13.733Z,97490.72
2022-10-09T06:50:10.643Z,97491.78
2022-10-09T06:53:07.487Z,97493.28
2022-10-09T06:56:05.248Z,97487.19
2022-10-09T06:59:04.443Z,97494.75
2022-10-09T07:02:01.346Z,97498.63
2022-10-09T07:04:58.370Z,97502.44
2022-10-09T07:07:55.260Z,97509.34
2022-10-09T07:10:52.109Z,97503.25
2022-10-09T07:13:57.119Z,97506.84
2022-10-09T07:16:54.543Z,97503.59
2022-10-09T07:19:51.369Z,97512.38
2022-10-09T07:22:48.420Z,97505.66
2022-10-09T07:25:45.913Z,97504.59
2022-10-09T07:28:44.115Z,97498.00
2022-10-09T07:31:41.333Z,97490.25
2022-10-09T07:34:38.291Z,97491.47
2022-10-09T07:37:35.115Z,97489.38
2022-10-09T07:40:35.547Z,97489.22
2022-10-09T07:43:34.671Z,97486.09
2022-10-09T07:46:33.997Z,97488.84
2022-10-09T07:49:31.285Z,97488.19
2022-10-09T07:52:28.108Z,97483.06
2022-10-09T07:55:24.965Z,97493.66
2022-10-09T07:58:21.838Z,97484.75
2022-10-09T08:01:20.671Z,97478.69
2022-10-09T08:04:17.691Z,97473.53
2022-10-09T08:07:14.670Z,97471.56
2022-10-09T08:10:11.570Z,97473.50
2022-10-09T08:13:08.407Z,97466.97
2022-10-09T08:16:07.106Z,97455.03
2022-10-09T08:19:04.634Z,97461.88
2022-10-09T08:22:03.592Z,97454.03
2022-10-09T08:25:00.638Z,97447.97
2022-10-09T08:27:57.532Z,97446.19
2022-10-09T08:30:54.524Z,97446.28
2022-10-09T08:34:00.452Z,97439.13
2022-10-09T08:36:57.291Z,97450.44
2022-10-09T08:39:54.188Z,97444.25
2022-10-09T08:43:03.690Z,97436.53
2022-10-09T08:46:26.167Z,97430.84
2022-10-09T08:49:47.912Z,97435.63
2022-10-09T08:52:56.302Z,97431.00
2022-10-09T08:56:00.956Z,97442.97
2022-10-09T08:58:57.890Z,97432.75
2022-10-09T09:02:20.672Z,97433.28
2022-10-09T09:05:36.549Z,97432.13
2022-10-09T09:09:03.994Z,97422.94
2022-10-09T09:12:29.851Z,97420.84
2022-10-09T09:15:55.453Z,97407.19
2022-10-09T09:19:11.885Z,97410.28
2022-10-09T09:22:16.255Z,97406.19
2022-10-09T09:25:28.425Z,97412.47
2022-10-09T09:28:31.794Z,97408.44
2022-10-09T09:31:36.599Z,97400.91
2022-10-09T09:34:41.791Z,97406.25
2022-10-09T09:37:38.736Z,97394.16
2022-10-09T09:40:37.586Z,97390.94
2022-10-09T09:43:36.699Z,97386.09
2022-10-09T09:46:35.207Z,97387.19
2022-10-09T09:49:32.185Z,97372.91
2022-10-09T09:52:35.557Z,97375.31
2022-10-09T09:55:34.196Z,97359.19
2022-10-09T09:58:40.034Z,97363.44
2022-10-09T10:01:36.980Z,97355.09
2022-10-09T10:04:33.910Z,97353.88
2022-10-09T10:07:38.889Z,97349.25
2022-10-09T10:10:35.874Z,97340.53
2022-10-09T10:13:49.015Z,97335.44
2022-10-09T10:16:50.958Z,97338.19
2022-10-09T10:19:50.794Z,97329.47
2022-10-09T10:22:56.707Z,97333.91
2022-10-09T10:25:56.979Z,97328.91
2022-10-09T10:29:04.151Z,97323.53
2022-10-09T10:32:23.452Z,97314.94
2022-10-09T10:35:39.886Z,97309.88
2022-10-09T10:38:46.289Z,97303.53
2022-10-09T10:41:47.865Z,97308.94
2022-10-09T10:45:13.063Z,97296.44
2022-10-09T10:48:48.287Z,97297.63
2022-10-09T10:52:20.284Z,97283.31
2022-10-09T10:55:52.059Z,97284.59
2022-10-09T10:59:02.900Z,97282.34
2022-10-09T11:02:33.923Z,97287.00
2022-10-09T11:05:42.856Z,97277.28
2022-10-09T11:09:39.558Z,97285.44
2022-10-09T11:13:00.975Z,97274.09
2022-10-09T11:16:39.203Z,97267.00
2022-10-09T11:19:52.346Z,97254.63
2022-10-09T11:23:00.113Z,97247.31
2022-10-09T11:26:08.411Z,97240.88
2022-10-09T11:29:25.433Z,97236.25
2022-10-09T11:35:47.049Z,97232.78
2022-10-09T11:39:18.227Z,97219.94
2022-10-09T11:42:21.536Z,97214.69
2022-10-09T11:45:47.655Z,97214.28
2022-10-09T11:49:20.099Z,97203.81
2022-10-09T11:52:24.265Z,97194.00
2022-10-09T11:55:26.635Z,97190.09
2022-10-09T11:58:25.967Z,97184.88
2022-10-09T12:01:28.728Z,97187.88
2022-10-09T12:04:54.101Z,97174.22
2022-10-09T12:07:51.598Z,97166.31
2022-10-09T12:10:58.962Z,97163.44
2022-10-09T12:14:01.270Z,97155.19
2022-10-09T12:16:59.851Z,97147.31
2022-10-09T12:20:06.549Z,97146.50
2022-10-09T12:23:27.454Z,97151.94
2022-10-09T12:26:25.975Z,97138.72
2022-10-09T12:29:36.011Z,97130.06
2022-10-09T12:32:38.562Z,97119.94
2022-10-09T12:35:42.036Z,97117.50
2022-10-09T12:38:39.212Z,97126.59
2022-10-09T12:41:36.828Z,97114.00
2022-10-09T12:44:39.701Z,97119.72
2022-10-09T12:47:36.628Z,97115.13
2022-10-09T12:50:35.649Z,97111.41
2022-10-09T12:53:32.605Z,97107.47
2022-10-09T12:56:38.007Z,97112.16
2022-10-09T12:59:34.972Z,97104.84
2022-10-09T13:02:32.015Z,97103.53
2022-10-09T13:05:40.893Z,97103.84
2022-10-09T13:08:39.743Z,97096.44
2022-10-09T13:11:44.474Z,97089.88
2022-10-09T13:14:44.697Z,97091.25
2022-10-09T13:17:42.213Z,97078.38
2022-10-09T13:20:39.216Z,97082.25
2022-10-09T13:23:36.472Z,97082.25
2022-10-09T13:26:33.346Z,97069.47
2022-10-09T13:29:30.256Z,97064.41
2022-10-09T13:32:27.746Z,97058.38
2022-10-09T13:35:24.752Z,97050.47
2022-10-09T13:38:22.896Z,97053.09
2022-10-09T13:41:24.559Z,97040.66
2022-10-09T13:44:21.736Z,97045.91
2022-10-09T13:47:24.097Z,97036.75
2022-10-09T13:50:21.574Z,97037.34
2022-10-09T13:53:18.663Z,97035.09
2022-10-09T13:56:15.625Z,97025.84
2022-10-09T13:59:12.467Z,97019.22
2022-10-09T14:02:11.401Z,97014.28
2022-10-09T14:05:08.721Z,97018.16
2022-10-09T14:08:05.760Z,97013.75
2022-10-09T14:11:03.297Z,97015.78
2022-10-09T14:14:00.526Z,97008.25
2022-10-09T14:16:57.382Z,97009.88
2022-10-09T14:19:54.203Z,97008.56
2022-10-09T14:22:51.517Z,97008.16
2022-10-09T14:25:48.609Z,97006.53
2022-10-09T14:28:45.528Z,97005.75
2022-10-09T14:31:42.471Z,97012.25
2022-10-09T14:34:39.340Z,97005.00
2022-10-09T14:37:41.685Z,97012.22
2022-10-09T14:40:44.168Z,97001.66
2022-10-09T14:43:40.995Z,97008.63
2022-10-09T14:46:39.225Z,97005.00
2022-10-09T14:49:36.142Z,96997.03
2022-10-09T14:52:33.421Z,96997.72
2022-10-09T14:55:30.260Z,96997.19
2022-10-09T14:58:30.055Z,96999.75
2022-10-09T15:01:27.992Z,97000.72
2022-10-09T15:04:26.305Z,96995.03
2022-10-09T15:07:23.130Z,96992.41
2022-10-09T15:10:19.951Z,96998.84
2022-10-09T15:13:16.782Z,96993.91
2022-10-09T15:16:16.923Z,96995.09
2022-10-09T15:19:13.815Z,96983.63
2022-10-09T15:22:13.532Z,96989.44
2022-10-09T15:25:10.514Z,96979.72
2022-10-09T15:28:07.440Z,96983.25
2022-10-09T15:31:06.986Z,96984.06
2022-10-09T15:34:05.115Z,96988.72
2022-10-09T15:37:01.936Z,96979.72
2022-10-09T15:39:58.786Z,96973.75
2022-10-09T15:42:55.652Z,96973.19
2022-10-09T15:45:56.085Z,96970.25
2022-10-09T15:48:53.250Z,96964.94
2022-10-09T15:51:50.109Z,96969.59
2022-10-09T15:54:47.009Z,96980.38
2022-10-09T15:57:43.837Z,96972.00
2022-10-09T16:00:44.752Z,96970.59
2022-10-09T16:03:41.864Z,96969.00
2022-10-09T16:06:38.750Z,96965.53
2022-10-09T16:09:36.903Z,96969.41
2022-10-09T16:12:33.991Z,96973.88
2022-10-09T16:15:30.798Z,96969.19
2022-10-09T16:18:27.731Z,96961.06
2022-10-09T16:21:28.795Z,96964.72
2022-10-09T16:24:25.662Z,96962.63
2022-10-09T16:27:22.506Z,96970.88
2022-10-09T16:30:19.362Z,96977.59
2022-10-09T16:33:16.263Z,96970.75
2022-10-09T16:36:13.658Z,96973.38
2022-10-09T16:39:10.497Z,96974.53
2022-10-09T16:42:07.440Z,96983.88
2022-10-09T16:45:04.911Z,96975.44
2022-10-09T16:48:01.737Z,96977.59
2022-10-09T16:50:58.574Z,96982.31
2022-10-09T16:53:58.480Z,96979.69
2022-10-09T16:56:55.315Z,96990.25
2022-10-09T16:59:52.179Z,96992.72
2022-10-09T17:02:49.049Z,96996.50
2022-10-09T17:05:45.926Z,96998.75
2022-10-09T17:08:42.852Z,96995.53
2022-10-09T17:11:40.046Z,96996.19
2022-10-09T17:14:37.850Z,96989.91
2022-10-09T17:17:34.768Z,96990.50
2022-10-09T17:20:31.611Z,96995.84
2022-10-09T17:23:28.477Z,96995.31
2022-10-09T17:26:27.292Z,96993.31
2022-10-09T17:29:24.275Z,97001.84
2022-10-09T17:32:21.148Z,96995.53
2022-10-09T17:35:18.110Z,96988.50
2022-10-09T17:38:14.997Z,96983.16
2022-10-09T17:41:14.840Z,96990.84
2022-10-09T17:44:12.573Z,96987.75
2022-10-09T17:47:09.415Z,96992.22
2022-10-09T17:50:07.310Z,96982.16
2022-10-09T17:53:04.700Z,96979.25
2022-10-09T17:56:04.472Z,96982.13
2022-10-09T17:59:02.426Z,96977.69
2022-10-09T18:01:59.292Z,96985.78
2022-10-09T18:04:57.990Z,96986.69
2022-10-09T18:07:54.895Z,96978.00
2022-10-09T18:11:07.464Z,96975.34
2022-10-09T18:14:04.308Z,96977.03
2022-10-09T18:17:01.150Z,96972.22
2022-10-09T18:19:57.960Z,96982.41
2022-10-09T18:22:54.800Z,96968.09
2022-10-09T18:25:51.626Z,96973.69
2022-10-09T18:28:48.853Z,96967.25
2022-10-09T18:31:45.857Z,96966.47
2022-10-09T18:34:46.368Z,96963.03
2022-10-09T18:37:43.403Z,96966.53
2022-10-09T18:40:45.746Z,96963.88
2022-10-09T18:43:42.859Z,96954.31
2022-10-09T18:46:43.168Z,96959.06
2022-10-09T18:49:46.889Z,96950.53
2022-10-09T18:52:44.099Z,96951.91
2022-10-09T18:55:43.064Z,96949.50
2022-10-09T18:58:41.902Z,96945.28
2022-10-09T19:01:38.976Z,96946.88
2022-10-09T19:04:35.889Z,96937.84
2022-10-09T19:07:32.713Z,96935.22
2022-10-09T19:10:29.693Z,96939.16
2022-10-09T19:13:27.699Z,96936.81
2022-10-09T19:16:24.608Z,96934.13
2022-10-09T19:19:21.443Z,96927.75
2022-10-09T19:22:23.570Z,96933.59
2022-10-09T19:25:20.902Z,96930.38
2022-10-09T19:28:18.941Z,96933.03
2022-10-09T19:31:16.010Z,96937.31
2022-10-09T19:34:12.918Z,96939.16
2022-10-09T19:37:09.743Z,96934.06
2022-10-09T19:40:07.504Z,96931.16
2022-10-09T19:43:04.332Z,96924.53
2022-10-09T19:46:18.182Z,96920.03
2022-10-09T19:49:15.639Z,96920.56
2022-10-09T19:52:12.520Z,96918.41
2022-10-09T19:55:09.530Z,96914.44
2022-10-09T19:58:06.736Z,96926.13
2022-10-09T20:01:03.648Z,96911.22
2022-10-09T20:04:04.156Z,96917.06
2022-10-09T20:07:01.028Z,96923.66
2022-10-09T20:09:58.141Z,96920.50
2022-10-09T20:12:55.257Z,96915.72
2022-10-09T20:15:52.206Z,96917.84
2022-10-09T20:18:49.177Z,96913.50
2022-10-09T20:21:46.012Z,96910.94
2022-10-09T20:24:42.874Z,96913.34
2022-10-09T20:27:39.734Z,96910.63
2022-10-09T20:30:36.601Z,96917.69
2022-10-09T20:33:34.553Z,96910.59
2022-10-09T20:36:37.815Z,96903.47
2022-10-09T20:39:34.748Z,96895.16
2022-10-09T20:42:32.006Z,96894.41
2022-10-09T20:45:28.977Z,96888.78
2022-10-09T20:48:25.857Z,96887.47
2022-10-09T20:51:24.993Z,96895.38
2022-10-09T20:54:22.087Z,96890.34
2022-10-09T20:57:19.438Z,96890.06
2022-10-09T21:00:16.358Z,96875.16
2022-10-09T21:03:13.188Z,96884.72
2022-10-09T21:06:15.397Z,96873.38
2022-10-09T21:09:12.347Z,96873.19
2022-10-09T21:12:09.230Z,96872.69
2022-10-09T21:15:06.959Z,96872.22
2022-10-09T21:18:03.967Z,96870.66
2022-10-09T21:21:13.330Z,96861.91
2022-10-09T21:24:10.196Z,96873.31
2022-10-09T21:27:07.042Z,96860.72
2022-10-09T21:30:04.560Z,96874.88
2022-10-09T21:33:01.381Z,96867.69
2022-10-09T21:35:58.293Z,96865.06
2022-10-09T21:38:55.176Z,96858.13
2022-10-09T21:41:52.190Z,96859.66
2022-10-09T21:44:49.029Z,96855.91
2022-10-09T21:47:45.882Z,96858.72
2022-10-09T21:50:44.036Z,96864.09
2022-10-09T21:53:40.860Z,96860.09
2022-10-09T21:56:37.689Z,96858.06
2022-10-09T21:59:34.560Z,96858.91
2022-10-09T22:02:32.030Z,96851.91
2022-10-09T22:05:29.156Z,96854.56
2022-10-09T22:08:26.506Z,96842.16
2022-10-09T22:11:23.356Z,96864.31
2022-10-09T22:14:20.191Z,96837.47
2022-10-09T22:17:17.075Z,96827.78
2022-10-09T22:20:13.953Z,96833.84
2022-10-09T22:23:12.779Z,96829.34
2022-10-09T22:26:17.434Z,96821.59
2022-10-09T22:29:14.267Z,96828.19
2022-10-09T22:32:11.138Z,96825.22
2022-10-09T22:35:08.442Z,96819.44
2022-10-09T22:38:05.278Z,96821.81
2022-10-09T22:41:04.456Z,96821.78
2022-10-09T22:44:02.594Z,96820.31
2022-10-09T22:46:59.486Z,96809.63
2022-10-09T22:49:57.350Z,96817.09
2022-10-09T22:52:54.170Z,96821.88
2022-10-09T22:55:50.975Z,96818.91
2022-10-09T22:58:49.969Z,96818.59
2022-10-09T23:01:54.501Z,96821.88
2022-10-09T23:04:51.389Z,96815.47
2022-10-09T23:07:48.251Z,96814.38
2022-10-09T23:10:45.079Z,96811.03
2022-10-09T23:13:42.074Z,96801.00
2022-10-09T23:16:40.071Z,96799.16
2022-10-09T23:19:37.057Z,96793.09
2022-10-09T23:22:33.911Z,96791.22
2022-10-09T23:25:30.762Z,96796.00
2022-10-09T23:28:27.799Z,96791.50
2022-10-09T23:31:26.300Z,96787.00
2022-10-09T23:34:23.139Z,96793.59
2022-10-09T23:37:20.045Z,96782.81
2022-10-09T23:40:17.013Z,96785.19
2022-10-09T23:43:13.908Z,96783.88
2022-10-09T23:46:15.539Z,96774.34
2022-10-09T23:49:12.370Z,96769.84
2022-10-09T23:52:09.196Z,96771.41
2022-10-09T23:55:06.828Z,96774.34
2022-10-09T23:58:03.677Z,96774.63
